Witch Wells, Arizona
Current Conditions -  °F | °C
As of 1:54 AM on Friday 19 Dec 2014 (Local Time) from KSJN Reporting Station
Few Clouds Few Clouds  
Wind Chill: 28°   Ceiling: Unl
Heat Index: 28°   Visibility: 10mi
Dew Point: 27°   Wind: 0mph
Humidity: 96%   Direction: NA
Pressure: 30.2"   Gusts: NA
Location:  34.4981°N, 109.241°W
Report Text: KSJN 190854Z AUTO 00000KT 10SM FEW015 M02/M03 A3020 RMK AO2 SLP225 I1000 I3000 T10221028 53001
Loading
Personal Weather Stations






























Interactive Weather Map New forecast layout! Learn more

10-Day Weather Forecast

Advertisements
Track Severe Weather on mobile